createdAt,value
2018-04-08T00:01:17.697Z,45.90
2018-04-08T00:03:43.658Z,45.30
2018-04-08T00:06:10.364Z,45.10
2018-04-08T00:08:36.332Z,45.10
2018-04-08T00:11:02.295Z,45.10
2018-04-08T00:13:29.050Z,45.50
2018-04-08T00:15:55.044Z,45.40
2018-04-08T00:18:21.023Z,45.10
2018-04-08T00:20:46.979Z,44.70
2018-04-08T00:23:12.972Z,44.20
2018-04-08T00:25:38.916Z,44.40
2018-04-08T00:28:05.636Z,45.10
2018-04-08T00:30:31.612Z,45.10
2018-04-08T00:32:58.337Z,46.00
2018-04-08T00:35:25.092Z,47.10
2018-04-08T00:37:51.052Z,46.50
2018-04-08T00:40:17.764Z,46.40
2018-04-08T00:42:43.752Z,46.40
2018-04-08T00:45:09.743Z,45.90
2018-04-08T00:47:36.887Z,45.60
2018-04-08T00:50:02.872Z,45.60
2018-04-08T00:52:29.615Z,45.20
2018-04-08T00:54:56.372Z,45.40
2018-04-08T00:57:23.064Z,46.00
2018-04-08T00:59:49.047Z,46.00
2018-04-08T01:02:15.755Z,47.10
2018-04-08T01:04:41.748Z,47.60
2018-04-08T01:07:08.459Z,47.40
2018-04-08T01:09:34.433Z,47.40
2018-04-08T01:12:01.260Z,47.80
2018-04-08T01:14:28.029Z,48.40
2018-04-08T01:16:54.004Z,48.30
2018-04-08T01:19:19.977Z,48.20
2018-04-08T01:21:45.956Z,48.30
2018-04-08T01:24:12.664Z,48.80
2018-04-08T01:26:38.630Z,48.80
2018-04-08T01:29:05.349Z,49.70
2018-04-08T01:31:31.328Z,49.70
2018-04-08T01:33:58.106Z,50.80
2018-04-08T01:36:24.081Z,50.70
2018-04-08T01:38:50.056Z,50.90
2018-04-08T01:41:16.768Z,51.80
2018-04-08T01:43:42.745Z,51.70
2018-04-08T01:46:08.725Z,51.60
2018-04-08T01:48:35.100Z,51.70
2018-04-08T01:51:01.081Z,51.60
2018-04-08T01:53:27.089Z,50.70
2018-04-08T01:55:53.796Z,49.30
2018-04-08T01:58:19.771Z,49.30
2018-04-08T02:00:46.484Z,48.30
2018-04-08T02:03:12.469Z,48.20
2018-04-08T02:05:39.196Z,47.70
2018-04-08T02:08:05.160Z,47.60
2018-04-08T02:10:31.868Z,47.40
2018-04-08T02:12:57.859Z,47.40
2018-04-08T02:15:23.837Z,47.60
2018-04-08T02:17:49.800Z,47.90
2018-04-08T02:20:15.757Z,48.10
2018-04-08T02:22:42.053Z,48.00
2018-04-08T02:25:08.027Z,47.40
2018-04-08T02:27:34.757Z,47.70
2018-04-08T02:30:00.773Z,47.70
2018-04-08T02:32:26.775Z,48.30
2018-04-08T02:34:52.764Z,48.70
2018-04-08T02:37:18.730Z,49.40
2018-04-08T02:39:44.706Z,49.50
2018-04-08T02:42:10.674Z,49.70
2018-04-08T02:44:37.820Z,51.70
2018-04-08T02:47:03.782Z,51.10
2018-04-08T02:49:30.528Z,52.60
2018-04-08T02:51:57.306Z,53.50
2018-04-08T02:54:23.273Z,53.20
2018-04-08T02:56:49.253Z,53.90
2018-04-08T02:59:15.950Z,53.20
2018-04-08T03:01:41.916Z,52.60
2018-04-08T03:04:07.890Z,52.40
2018-04-08T03:06:34.599Z,51.90
2018-04-08T03:09:00.619Z,52.00
2018-04-08T03:11:26.600Z,51.60
2018-04-08T03:13:53.314Z,53.30
2018-04-08T03:16:26.236Z,53.30
2018-04-08T03:18:52.568Z,54.20
2018-04-08T03:21:18.536Z,54.80
2018-04-08T03:23:45.248Z,54.30
2018-04-08T03:26:11.215Z,54.20
2018-04-08T03:28:37.908Z,53.30
2018-04-08T03:31:03.893Z,53.10
2018-04-08T03:33:29.895Z,53.10
2018-04-08T03:35:55.917Z,53.10
2018-04-08T03:38:29.080Z,53.10
2018-04-08T03:40:55.804Z,53.90
2018-04-08T03:43:21.780Z,53.90
2018-04-08T03:45:48.492Z,54.20
2018-04-08T03:48:14.464Z,54.10
2018-04-08T03:50:41.165Z,54.70
2018-04-08T03:53:07.141Z,54.70
2018-04-08T03:55:33.121Z,55.00
2018-04-08T03:57:59.434Z,54.20
2018-04-08T04:00:26.192Z,54.10
2018-04-08T04:02:53.121Z,54.20
2018-04-08T04:05:19.113Z,54.20
2018-04-08T04:07:45.081Z,54.30
2018-04-08T04:10:11.052Z,54.30
2018-04-08T04:12:37.765Z,54.30
2018-04-08T04:15:03.746Z,54.30
2018-04-08T04:17:30.479Z,54.70
2018-04-08T04:20:08.874Z,54.60
2018-04-08T04:22:47.328Z,55.00
2018-04-08T04:25:25.891Z,53.40
2018-04-08T04:27:58.736Z,53.60
2018-04-08T04:30:25.005Z,53.10
2018-04-08T04:32:50.985Z,52.20
2018-04-08T04:35:16.960Z,53.20
2018-04-08T04:37:42.949Z,52.00
2018-04-08T04:40:08.902Z,51.50
2018-04-08T04:42:34.873Z,50.90
2018-04-08T04:45:00.860Z,50.10
2018-04-08T04:47:27.180Z,50.10
2018-04-08T04:49:53.887Z,50.40
2018-04-08T04:52:20.113Z,50.20
2018-04-08T04:54:46.088Z,49.70
2018-04-08T04:57:12.057Z,49.90
2018-04-08T04:59:38.053Z,50.10
2018-04-08T05:02:04.033Z,50.10
2018-04-08T05:04:30.323Z,49.70
2018-04-08T05:06:56.384Z,50.00
2018-04-08T05:09:23.088Z,48.80
2018-04-08T05:11:49.324Z,48.80
2018-04-08T05:14:15.299Z,48.50
2018-04-08T05:16:41.269Z,49.20
2018-04-08T05:19:07.257Z,49.70
2018-04-08T05:21:33.235Z,50.00
2018-04-08T05:23:59.977Z,48.20
2018-04-08T05:26:26.718Z,46.90
2018-04-08T05:28:53.424Z,45.50
2018-04-08T05:31:19.433Z,45.40
2018-04-08T05:33:45.390Z,44.60
2018-04-08T05:36:11.352Z,42.80
2018-04-08T05:38:37.322Z,41.70
2018-04-08T05:41:03.365Z,40.10
2018-04-08T05:43:29.325Z,39.10
2018-04-08T05:45:55.315Z,39.30
2018-04-08T05:48:22.036Z,38.30
2018-04-08T05:50:48.005Z,38.00
2018-04-08T05:53:13.969Z,38.00
2018-04-08T05:55:39.962Z,36.00
2018-04-08T05:58:05.942Z,35.70
2018-04-08T06:00:31.973Z,35.30
2018-04-08T06:02:58.038Z,34.70
2018-04-08T06:05:24.001Z,35.00
2018-04-08T06:07:49.983Z,34.80
2018-04-08T06:10:15.956Z,33.50
2018-04-08T06:12:41.920Z,32.90
2018-04-08T06:15:07.889Z,33.10
2018-04-08T06:17:33.869Z,32.80
2018-04-08T06:19:59.911Z,33.30
2018-04-08T06:22:25.980Z,34.10
2018-04-08T06:24:52.717Z,33.70
2018-04-08T06:27:18.673Z,33.60
2018-04-08T06:29:45.386Z,35.60
2018-04-08T06:32:11.348Z,35.60
2018-04-08T06:34:38.106Z,37.40
2018-04-08T06:37:04.837Z,37.80
2018-04-08T06:39:30.865Z,37.70
2018-04-08T06:41:56.867Z,37.90
2018-04-08T06:44:22.854Z,38.00
2018-04-08T06:46:48.833Z,36.70
2018-04-08T06:49:14.809Z,35.60
2018-04-08T06:51:40.801Z,34.20
2018-04-08T06:54:06.785Z,30.60
2018-04-08T06:56:32.757Z,29.10
2018-04-08T06:58:59.502Z,28.40
2018-04-08T07:01:26.765Z,28.30
2018-04-08T07:03:53.493Z,29.10
2018-04-08T07:06:19.465Z,28.60
2018-04-08T07:08:45.433Z,30.10
2018-04-08T07:11:11.398Z,30.00
2018-04-08T07:13:37.365Z,29.90
2018-04-08T07:16:03.337Z,28.80
2018-04-08T07:18:29.375Z,28.20
2018-04-08T07:20:55.352Z,27.90
2018-04-08T07:23:22.089Z,27.40
2018-04-08T07:25:48.065Z,26.70
2018-04-08T07:28:14.060Z,26.50
2018-04-08T07:30:40.045Z,27.00
2018-04-08T07:33:06.005Z,26.90
2018-04-08T07:35:31.984Z,27.50
2018-04-08T07:37:58.691Z,28.40
2018-04-08T07:40:24.656Z,27.90
2018-04-08T07:42:50.623Z,27.70
2018-04-08T07:45:18.165Z,27.30
2018-04-08T07:47:44.126Z,27.50
2018-04-08T07:50:11.181Z,28.80
2018-04-08T07:52:37.893Z,28.80
2018-04-08T07:55:03.903Z,28.70
2018-04-08T07:57:29.941Z,28.80
2018-04-08T07:59:55.957Z,28.60
2018-04-08T08:02:21.921Z,27.10
2018-04-08T08:04:47.899Z,27.00
2018-04-08T08:07:13.865Z,26.30
2018-04-08T08:09:39.824Z,25.60
2018-04-08T08:12:05.796Z,26.00
2018-04-08T08:14:32.508Z,26.00
2018-04-08T08:16:58.525Z,26.00
2018-04-08T08:19:24.496Z,26.30
2018-04-08T08:21:50.452Z,25.60
2018-04-08T08:24:16.453Z,25.30
2018-04-08T08:26:42.414Z,25.90
2018-04-08T08:29:08.374Z,26.60
2018-04-08T08:31:34.348Z,25.90
2018-04-08T08:34:00.386Z,26.80
2018-04-08T08:36:26.409Z,27.10
2018-04-08T08:38:52.434Z,26.70
2018-04-08T08:41:19.133Z,26.80
2018-04-08T08:43:45.101Z,26.80
2018-04-08T08:46:11.088Z,26.30
2018-04-08T08:48:37.056Z,26.00
2018-04-08T08:51:03.026Z,25.10
2018-04-08T08:53:29.783Z,25.30
2018-04-08T08:55:56.557Z,24.90
2018-04-08T08:58:22.509Z,24.90
2018-04-08T09:00:48.883Z,25.20
2018-04-08T09:03:14.856Z,25.80
2018-04-08T09:05:40.837Z,27.30
2018-04-08T09:08:06.830Z,27.40
2018-04-08T09:10:33.001Z,28.40
2018-04-08T09:12:59.122Z,29.30
2018-04-08T09:15:26.271Z,29.00
2018-04-08T09:17:52.424Z,29.50
2018-04-08T09:20:21.377Z,31.30
2018-04-08T09:22:53.558Z,31.30
2018-04-08T09:25:20.684Z,32.50
2018-04-08T09:27:47.013Z,33.90
2018-04-08T09:30:13.178Z,34.90
2018-04-08T09:32:39.300Z,35.30
2018-04-08T09:35:05.464Z,35.80
2018-04-08T09:37:32.020Z,36.10
2018-04-08T09:39:58.484Z,36.40
2018-04-08T09:42:24.749Z,36.70
2018-04-08T09:44:50.920Z,37.30
2018-04-08T09:47:17.975Z,37.30
2018-04-08T09:49:45.581Z,38.40
2018-04-08T09:52:12.421Z,38.00
2018-04-08T09:54:38.553Z,37.90
2018-04-08T09:57:05.412Z,38.50
2018-04-08T09:59:32.281Z,39.10
2018-04-08T10:05:00.013Z,38.90
2018-04-08T10:07:26.200Z,38.80
2018-04-08T10:09:52.344Z,38.50
2018-04-08T10:12:18.565Z,38.50
2018-04-08T10:14:44.654Z,38.20
2018-04-08T10:17:17.666Z,38.30
2018-04-08T10:19:43.632Z,39.40
2018-04-08T10:22:09.602Z,39.40
2018-04-08T10:24:35.940Z,39.20
2018-04-08T10:27:01.972Z,39.10
2018-04-08T10:29:27.915Z,38.20
2018-04-08T10:31:53.880Z,37.40
2018-04-08T10:34:19.840Z,37.90
2018-04-08T10:36:45.796Z,39.10
2018-04-08T10:39:11.781Z,37.30
2018-04-08T10:41:38.485Z,40.40
2018-04-08T10:44:04.482Z,40.40
2018-04-08T10:46:30.478Z,43.90
2018-04-08T10:48:56.482Z,39.30
2018-04-08T10:51:22.465Z,43.40
2018-04-08T10:53:49.177Z,40.50
2018-04-08T10:56:15.145Z,40.40
2018-04-08T10:58:41.124Z,41.40
2018-04-08T11:01:07.092Z,39.50
2018-04-08T11:03:33.124Z,40.80
2018-04-08T11:05:59.264Z,40.50
2018-04-08T11:08:25.662Z,39.70
2018-04-08T11:10:51.953Z,38.80
2018-04-08T11:13:17.919Z,38.70
2018-04-08T11:15:44.657Z,40.90
2018-04-08T11:18:10.643Z,40.80
2018-04-08T11:20:36.648Z,42.90
2018-04-08T11:23:03.364Z,38.90
2018-04-08T11:25:29.464Z,38.90
2018-04-08T11:27:55.526Z,39.70
2018-04-08T11:30:21.488Z,39.40
2018-04-08T11:32:47.461Z,39.00
2018-04-08T11:35:13.417Z,40.00
2018-04-08T11:37:39.389Z,39.10
2018-04-08T11:40:05.357Z,38.40
2018-04-08T11:42:32.493Z,38.60
2018-04-08T11:44:58.469Z,38.60
2018-04-08T11:47:24.429Z,40.80
2018-04-08T11:49:50.416Z,38.90
2018-04-08T11:52:17.142Z,39.80
2018-04-08T11:54:43.121Z,39.70
2018-04-08T11:57:09.127Z,38.80
2018-04-08T11:59:35.422Z,38.80
2018-04-08T12:02:01.428Z,36.30
2018-04-08T12:04:28.159Z,37.30
2018-04-08T12:06:54.281Z,37.30
2018-04-08T12:09:20.261Z,37.70
2018-04-08T12:11:46.242Z,38.40
2018-04-08T12:14:12.204Z,38.20
2018-04-08T12:16:38.185Z,36.50
2018-04-08T12:19:04.186Z,36.10
2018-04-08T12:21:30.912Z,39.90
2018-04-08T12:23:57.186Z,39.80
2018-04-08T12:26:34.750Z,36.20
2018-04-08T12:29:01.121Z,36.30
2018-04-08T12:31:27.189Z,36.70
2018-04-08T12:33:53.164Z,36.10
2018-04-08T12:36:19.529Z,35.40
2018-04-08T12:38:45.510Z,35.60
2018-04-08T12:41:11.473Z,36.00
2018-04-08T12:43:37.438Z,36.70
2018-04-08T12:46:04.141Z,33.30
2018-04-08T12:48:30.534Z,33.30
2018-04-08T12:50:56.556Z,34.10
2018-04-08T12:53:22.554Z,32.60
2018-04-08T12:55:48.524Z,33.40
2018-04-08T12:58:14.484Z,34.90
2018-04-08T13:00:41.210Z,34.30
2018-04-08T13:03:07.193Z,34.20
2018-04-08T13:05:33.924Z,32.70
2018-04-08T13:07:59.937Z,32.70
2018-04-08T13:10:25.956Z,32.90
2018-04-08T13:12:51.929Z,33.40
2018-04-08T13:15:17.924Z,32.90
2018-04-08T13:17:44.025Z,33.30
2018-04-08T13:20:10.064Z,35.00
2018-04-08T13:22:36.777Z,35.20
2018-04-08T13:25:02.921Z,35.20
2018-04-08T13:27:28.904Z,37.30
2018-04-08T13:29:54.862Z,33.60
2018-04-08T13:32:20.844Z,32.90
2018-04-08T13:34:46.827Z,37.20
2018-04-08T13:37:12.831Z,35.20
2018-04-08T13:39:39.533Z,34.10
2018-04-08T13:42:05.520Z,34.10
2018-04-08T13:44:32.518Z,35.50
2018-04-08T13:46:58.947Z,35.40
2018-04-08T13:49:24.906Z,34.90
2018-04-08T13:51:50.868Z,35.00
2018-04-08T13:54:16.845Z,33.50
2018-04-08T13:56:43.133Z,36.90
2018-04-08T13:59:09.093Z,35.90
2018-04-08T14:01:35.828Z,36.60
2018-04-08T14:04:01.833Z,36.40
2018-04-08T14:06:27.823Z,33.50
2018-04-08T14:08:53.833Z,34.40
2018-04-08T14:11:19.801Z,34.20
2018-04-08T14:13:45.912Z,33.40
2018-04-08T14:16:11.876Z,33.20
2018-04-08T14:18:37.843Z,32.70
2018-04-08T14:21:03.820Z,32.80
2018-04-08T14:23:29.806Z,32.80
2018-04-08T14:26:02.729Z,32.20
2018-04-08T14:28:28.818Z,32.80
2018-04-08T14:30:55.866Z,33.30
2018-04-08T14:33:22.597Z,33.30
2018-04-08T14:35:48.572Z,33.30
2018-04-08T14:38:14.601Z,33.60
2018-04-08T14:40:41.351Z,33.30
2018-04-08T14:43:08.083Z,33.90
2018-04-08T14:45:34.071Z,33.80
2018-04-08T14:48:00.073Z,33.30
2018-04-08T14:50:26.801Z,32.40
2018-04-08T14:52:52.765Z,32.40
2018-04-08T14:55:19.484Z,32.50
2018-04-08T14:57:45.469Z,32.50
2018-04-08T15:00:11.834Z,32.90
2018-04-08T15:02:37.810Z,33.00
2018-04-08T15:05:03.809Z,33.20
2018-04-08T15:07:29.792Z,32.90
2018-04-08T15:09:55.829Z,32.30
2018-04-08T15:12:22.576Z,33.20
2018-04-08T15:14:48.829Z,33.10
2018-04-08T15:17:15.540Z,33.30
2018-04-08T15:19:41.497Z,33.20
2018-04-08T15:22:07.597Z,33.20
2018-04-08T15:24:33.981Z,32.50
2018-04-08T15:26:59.977Z,31.50
2018-04-08T15:29:26.025Z,32.20
2018-04-08T15:31:52.001Z,31.60
2018-04-08T15:34:18.705Z,32.50
2018-04-08T15:36:44.675Z,31.90
2018-04-08T15:39:10.813Z,32.10
2018-04-08T15:41:36.806Z,32.20
2018-04-08T15:44:02.810Z,32.00
2018-04-08T15:46:29.647Z,31.90
2018-04-08T15:48:55.645Z,31.90
2018-04-08T15:51:21.646Z,31.70
2018-04-08T15:53:47.658Z,31.80
2018-04-08T15:56:14.393Z,32.00
2018-04-08T15:58:40.356Z,31.60
2018-04-08T16:01:07.069Z,31.30
2018-04-08T16:03:33.151Z,31.30
2018-04-08T16:05:59.211Z,31.60
2018-04-08T16:08:25.214Z,31.70
2018-04-08T16:10:51.218Z,32.20
2018-04-08T16:13:17.189Z,32.10
2018-04-08T16:15:43.958Z,32.00
2018-04-08T16:18:09.983Z,32.10
2018-04-08T16:20:36.716Z,31.60
2018-04-08T16:23:03.065Z,31.60
2018-04-08T16:25:29.249Z,31.90
2018-04-08T16:27:55.262Z,31.80
2018-04-08T16:30:21.540Z,32.00
2018-04-08T16:32:47.550Z,32.00
2018-04-08T16:35:13.827Z,31.70
2018-04-08T16:37:39.908Z,31.90
2018-04-08T16:40:06.616Z,32.40
2018-04-08T16:42:32.630Z,32.40
2018-04-08T16:44:58.705Z,31.90
2018-04-08T16:47:25.464Z,32.40
2018-04-08T16:49:52.181Z,32.50
2018-04-08T16:52:18.177Z,32.50
2018-04-08T16:54:44.905Z,32.80
2018-04-08T16:57:10.874Z,32.80
2018-04-08T16:59:37.600Z,33.20
2018-04-08T17:02:03.619Z,33.20
2018-04-08T17:04:29.946Z,33.50
2018-04-08T17:06:55.977Z,33.90
2018-04-08T17:09:21.967Z,34.10
2018-04-08T17:11:47.902Z,34.50
2018-04-08T17:14:14.645Z,35.20
2018-04-08T17:16:40.648Z,35.00
2018-04-08T17:19:06.625Z,35.40
2018-04-08T17:21:32.677Z,35.70
2018-04-08T17:23:59.419Z,36.70
2018-04-08T17:26:26.160Z,37.10
2018-04-08T17:28:52.399Z,37.10
2018-04-08T17:31:18.358Z,37.40
2018-04-08T17:33:45.101Z,37.70
2018-04-08T17:36:12.038Z,38.00
2018-04-08T17:38:38.002Z,38.00
2018-04-08T17:41:04.738Z,38.00
2018-04-08T17:43:30.737Z,37.90
2018-04-08T17:45:56.735Z,38.10
2018-04-08T17:48:22.976Z,38.10
2018-04-08T17:50:49.073Z,38.50
2018-04-08T17:53:15.802Z,39.50
2018-04-08T17:55:41.778Z,38.90
2018-04-08T17:58:08.544Z,39.60
2018-04-08T18:00:35.266Z,40.60
2018-04-08T18:03:01.292Z,40.50
2018-04-08T18:05:27.382Z,40.50
2018-04-08T18:07:53.369Z,41.50
2018-04-08T18:10:19.328Z,41.40
2018-04-08T18:12:45.465Z,41.60
2018-04-08T18:15:11.677Z,42.20
2018-04-08T18:17:37.641Z,43.30
2018-04-08T18:20:03.621Z,44.50
2018-04-08T18:22:29.615Z,44.70
2018-04-08T18:24:55.614Z,44.70
2018-04-08T18:27:21.692Z,44.60
2018-04-08T18:29:48.395Z,45.60
2018-04-08T18:32:14.881Z,45.00
2018-04-08T18:34:40.849Z,45.20
2018-04-08T18:37:06.812Z,45.40
2018-04-08T18:39:32.804Z,45.70
2018-04-08T18:41:59.553Z,46.60
2018-04-08T18:44:26.365Z,47.20
2018-04-08T18:46:52.327Z,47.10
2018-04-08T18:49:18.477Z,47.50
2018-04-08T18:51:44.454Z,47.50
2018-04-08T18:54:10.421Z,48.20
2018-04-08T18:56:36.437Z,49.10
2018-04-08T18:59:02.414Z,48.70
2018-04-08T19:01:29.147Z,49.20
2018-04-08T19:03:55.192Z,49.20
2018-04-08T19:06:21.159Z,49.50
2018-04-08T19:08:48.025Z,49.80
2018-04-08T19:11:14.116Z,49.70
2018-04-08T19:13:40.090Z,50.20
2018-04-08T19:16:06.809Z,50.80
2018-04-08T19:18:32.802Z,50.70
2018-04-08T19:20:59.720Z,51.00
2018-04-08T19:23:26.506Z,51.10
2018-04-08T19:25:52.896Z,51.00
2018-04-08T19:28:18.865Z,51.20
2018-04-08T19:30:45.573Z,51.00
2018-04-08T19:33:11.593Z,51.00
2018-04-08T19:35:37.564Z,51.30
2018-04-08T19:38:03.538Z,51.20
2018-04-08T19:40:29.542Z,51.30
2018-04-08T19:42:55.557Z,51.40
2018-04-08T19:45:21.541Z,50.50
2018-04-08T19:47:48.878Z,51.40
2018-04-08T19:50:14.849Z,51.40
2018-04-08T19:52:40.842Z,51.40
2018-04-08T19:55:06.985Z,51.40
2018-04-08T19:57:32.958Z,51.30
2018-04-08T19:59:58.946Z,51.10
2018-04-08T20:02:24.925Z,51.20
2018-04-08T20:04:50.939Z,50.40
2018-04-08T20:07:17.643Z,50.40
2018-04-08T20:09:43.652Z,50.00
2018-04-08T20:12:09.636Z,50.20
2018-04-08T20:14:35.600Z,49.80
2018-04-08T20:17:01.742Z,49.30
2018-04-08T20:19:28.481Z,48.50
2018-04-08T20:21:54.472Z,48.50
2018-04-08T20:24:20.466Z,48.80
2018-04-08T20:26:46.446Z,48.70
2018-04-08T20:29:12.433Z,48.30
2018-04-08T20:31:39.168Z,48.20
2018-04-08T20:34:05.134Z,48.20
2018-04-08T20:36:31.877Z,48.30
2018-04-08T20:38:58.717Z,48.60
2018-04-08T20:41:24.672Z,48.60
2018-04-08T20:43:51.378Z,48.50
2018-04-08T20:46:17.388Z,48.30
2018-04-08T20:48:43.361Z,48.80
2018-04-08T20:51:09.351Z,48.40
2018-04-08T20:53:35.377Z,48.70
2018-04-08T20:56:02.144Z,48.90
2018-04-08T20:58:28.129Z,48.80
2018-04-08T21:00:54.120Z,49.00
2018-04-08T21:03:20.090Z,48.50
2018-04-08T21:05:46.058Z,48.50
2018-04-08T21:11:09.963Z,48.90
2018-04-08T21:13:35.961Z,49.90
2018-04-08T21:16:02.039Z,49.10
2018-04-08T21:18:28.292Z,50.40
2018-04-08T21:20:54.249Z,50.30
2018-04-08T21:23:20.960Z,51.10
2018-04-08T21:25:46.942Z,51.10
2018-04-08T21:28:13.642Z,51.30
2018-04-08T21:30:39.610Z,51.40
2018-04-08T21:33:05.609Z,51.80
2018-04-08T21:35:31.616Z,52.20
2018-04-08T21:37:57.948Z,52.40
2018-04-08T21:40:23.990Z,52.50
2018-04-08T21:42:49.973Z,52.20
2018-04-08T21:45:15.958Z,52.10
2018-04-08T21:47:42.352Z,52.00
2018-04-08T21:50:08.312Z,51.50
2018-04-08T21:52:34.296Z,50.60
2018-04-08T21:55:00.334Z,50.50
2018-04-08T21:57:26.352Z,50.30
2018-04-08T21:59:52.305Z,50.30
2018-04-08T22:02:18.309Z,50.20
2018-04-08T22:04:45.017Z,51.00
2018-04-08T22:07:10.976Z,51.00
2018-04-08T22:09:36.959Z,52.60
2018-04-08T22:12:02.926Z,54.30
2018-04-08T22:14:28.941Z,53.90
2018-04-08T22:16:55.314Z,52.70
2018-04-08T22:19:21.286Z,52.20
2018-04-08T22:21:47.269Z,51.90
2018-04-08T22:24:13.428Z,51.80
2018-04-08T22:26:40.904Z,53.10
2018-04-08T22:29:06.859Z,53.60
2018-04-08T22:31:33.633Z,52.00
2018-04-08T22:33:59.617Z,51.90
2018-04-08T22:36:27.106Z,51.30
2018-04-08T22:38:53.873Z,51.30
2018-04-08T22:41:20.586Z,51.40
2018-04-08T22:43:46.577Z,51.40
2018-04-08T22:46:12.957Z,51.50
2018-04-08T22:48:39.121Z,51.40
2018-04-08T22:51:05.093Z,51.00
2018-04-08T22:53:31.157Z,51.00
2018-04-08T22:55:57.188Z,50.90
2018-04-08T22:58:23.176Z,51.10
2018-04-08T23:00:49.327Z,51.40
2018-04-08T23:03:16.025Z,51.30
2018-04-08T23:05:42.005Z,51.30
2018-04-08T23:08:08.301Z,51.50
2018-04-08T23:10:34.291Z,51.40
2018-04-08T23:13:00.281Z,51.30
2018-04-08T23:15:26.457Z,51.10
2018-04-08T23:17:52.410Z,51.20
2018-04-08T23:20:19.128Z,51.30
2018-04-08T23:22:45.270Z,51.10
2018-04-08T23:25:11.245Z,51.70
2018-04-08T23:27:37.204Z,52.80
2018-04-08T23:30:03.218Z,52.00
2018-04-08T23:32:29.209Z,51.80
2018-04-08T23:34:56.126Z,51.20
2018-04-08T23:37:22.109Z,51.30
2018-04-08T23:39:48.182Z,51.40
2018-04-08T23:42:14.153Z,51.40
2018-04-08T23:44:40.186Z,51.60
2018-04-08T23:47:06.164Z,53.10
2018-04-08T23:49:32.179Z,54.30
2018-04-08T23:51:58.336Z,53.10
2018-04-08T23:54:24.300Z,52.40
2018-04-08T23:56:50.261Z,51.80
2018-04-08T23:59:16.746Z,51.60
